createdAt,value
2018-03-19T00:02:06.087Z,5.20
2018-03-19T00:08:10.645Z,4.13
2018-03-19T00:14:15.197Z,4.53
2018-03-19T00:20:19.906Z,4.53
2018-03-19T00:26:24.601Z,4.17
2018-03-19T00:32:29.112Z,5.17
2018-03-19T00:38:34.489Z,5.23
2018-03-19T00:44:39.205Z,4.10
2018-03-19T00:50:43.917Z,4.00
2018-03-19T00:56:48.609Z,4.60
2018-03-19T01:02:53.183Z,4.57
2018-03-19T01:08:57.745Z,4.37
2018-03-19T01:15:02.318Z,5.57
2018-03-19T01:21:06.846Z,4.97
2018-03-19T01:27:12.905Z,5.20
2018-03-19T01:33:17.433Z,5.30
2018-03-19T01:39:22.145Z,4.83
2018-03-19T01:45:27.607Z,4.67
2018-03-19T01:51:32.157Z,4.73
2018-03-19T01:57:36.822Z,5.53
2018-03-19T02:03:42.139Z,5.13
2018-03-19T02:09:47.014Z,4.90
2018-03-19T02:15:51.727Z,4.90
2018-03-19T02:21:56.311Z,5.03
2018-03-19T02:28:00.856Z,4.90
2018-03-19T02:34:05.352Z,4.90
2018-03-19T02:40:09.904Z,5.07
2018-03-19T02:46:14.441Z,4.63
2018-03-19T02:52:20.655Z,5.00
2018-03-19T02:58:25.242Z,4.93
2018-03-19T03:04:30.590Z,4.70
2018-03-19T03:10:35.203Z,5.20
2018-03-19T03:16:40.581Z,5.60
2018-03-19T03:22:45.147Z,4.90
2018-03-19T03:28:50.230Z,5.93
2018-03-19T03:34:54.771Z,5.00
2018-03-19T03:40:59.292Z,4.70
2018-03-19T03:47:03.896Z,5.10
2018-03-19T03:53:08.408Z,4.60
2018-03-19T03:59:13.731Z,4.90
2018-03-19T04:05:18.990Z,5.30
2018-03-19T04:11:24.380Z,5.50
2018-03-19T04:17:28.910Z,4.77
2018-03-19T04:23:34.210Z,4.90
2018-03-19T04:29:38.768Z,5.57
2018-03-19T04:35:43.571Z,4.80
2018-03-19T04:41:48.640Z,5.77
2018-03-19T04:47:54.245Z,4.60
2018-03-19T04:53:58.843Z,4.90
2018-03-19T05:00:03.493Z,5.37
2018-03-19T05:06:08.838Z,5.67
2018-03-19T05:12:13.431Z,5.87
2018-03-19T05:18:18.626Z,5.23
2018-03-19T05:24:23.172Z,4.53
2018-03-19T05:30:28.655Z,5.70
2018-03-19T05:36:33.222Z,5.50
2018-03-19T05:42:37.893Z,5.20
2018-03-19T05:48:42.445Z,5.20
2018-03-19T05:54:47.584Z,6.03
2018-03-19T06:00:52.401Z,4.77
2018-03-19T06:06:57.028Z,4.80
2018-03-19T06:13:01.682Z,4.50
2018-03-19T06:19:07.244Z,5.13
2018-03-19T06:25:12.541Z,5.50
2018-03-19T06:31:17.872Z,5.07
2018-03-19T06:37:22.464Z,5.00
2018-03-19T06:43:27.135Z,4.73
2018-03-19T06:49:32.048Z,4.87
2018-03-19T06:55:36.680Z,6.20
2018-03-19T07:01:41.380Z,6.20
2018-03-19T07:07:45.988Z,5.47
2018-03-19T07:13:50.857Z,5.20
2018-03-19T07:19:55.384Z,5.37
2018-03-19T07:26:00.879Z,5.80
2018-03-19T07:32:05.472Z,5.97
2018-03-19T07:38:10.760Z,6.33
2018-03-19T07:44:15.546Z,6.70
2018-03-19T07:50:21.247Z,5.53
2018-03-19T07:56:25.755Z,5.17
2018-03-19T08:02:31.001Z,5.67
2018-03-19T08:08:35.666Z,4.77
2018-03-19T08:14:40.397Z,4.93
2018-03-19T08:20:45.032Z,4.27
2018-03-19T08:39:50.238Z,4.30
2018-03-19T08:45:55.228Z,4.70
2018-03-19T08:51:59.770Z,5.43
2018-03-19T08:58:04.410Z,4.80
2018-03-19T09:04:09.677Z,7.70
2018-03-19T09:10:15.019Z,9.23
2018-03-19T09:16:19.559Z,7.20
2018-03-19T09:22:24.832Z,7.10
2018-03-19T09:28:29.449Z,8.00
2018-03-19T09:34:34.118Z,7.20
2018-03-19T09:40:39.218Z,7.60
2018-03-19T09:46:43.749Z,8.20
2018-03-19T09:52:48.463Z,8.67
2018-03-19T09:58:53.056Z,8.13
2018-03-19T10:04:57.712Z,8.50
2018-03-19T10:11:02.351Z,8.93
2018-03-19T10:17:06.960Z,8.30
2018-03-19T10:23:11.627Z,9.33
2018-03-19T10:29:16.305Z,8.60
2018-03-19T10:35:21.633Z,9.70
2018-03-19T10:41:26.351Z,8.20
2018-03-19T10:47:30.856Z,8.07
2018-03-19T10:53:35.414Z,10.27
2018-03-19T10:59:39.941Z,9.70
2018-03-19T11:05:50.524Z,7.90
2018-03-19T11:11:55.170Z,7.10
2018-03-19T11:17:59.773Z,9.43
2018-03-19T11:24:04.267Z,7.70
2018-03-19T11:30:08.888Z,6.80
2018-03-19T11:36:13.657Z,9.73
2018-03-19T11:42:18.770Z,7.43
2018-03-19T11:48:23.495Z,6.80
2018-03-19T11:54:28.232Z,7.17
2018-03-19T12:00:33.529Z,7.13
2018-03-19T12:06:38.883Z,6.73
2018-03-19T12:12:44.321Z,7.27
2018-03-19T12:18:48.849Z,6.87
2018-03-19T12:24:53.468Z,7.37
2018-03-19T12:30:58.059Z,7.33
2018-03-19T12:37:02.717Z,7.73
2018-03-19T12:43:07.462Z,6.93
2018-03-19T12:49:12.024Z,7.73
2018-03-19T12:55:17.427Z,6.67
2018-03-19T13:01:22.842Z,6.93
2018-03-19T13:07:27.664Z,6.60
2018-03-19T13:13:32.155Z,6.87
2018-03-19T13:19:36.761Z,6.30
2018-03-19T13:25:42.167Z,6.43
2018-03-19T13:31:48.495Z,7.03
2018-03-19T13:37:53.016Z,6.03
2018-03-19T13:43:57.534Z,6.90
2018-03-19T13:50:02.258Z,6.47
2018-03-19T13:56:06.764Z,6.03
2018-03-19T14:02:11.319Z,5.27
2018-03-19T14:08:16.535Z,5.90
2018-03-19T14:14:21.614Z,5.50
2018-03-19T14:20:26.125Z,5.60
2018-03-19T14:26:30.652Z,5.00
2018-03-19T14:32:35.136Z,4.03
2018-03-19T14:38:40.359Z,4.20
2018-03-19T14:44:44.901Z,3.53
2018-03-19T14:50:49.984Z,4.23
2018-03-19T14:56:54.529Z,4.20
2018-03-19T15:02:59.367Z,3.63
2018-03-19T15:09:03.929Z,3.90
2018-03-19T15:15:08.423Z,4.30
2018-03-19T15:21:12.915Z,3.63
2018-03-19T15:27:17.578Z,4.57
2018-03-19T15:33:22.144Z,4.13
2018-03-19T15:39:26.753Z,4.60
2018-03-19T15:45:31.257Z,4.53
2018-03-19T15:51:35.875Z,5.00
2018-03-19T15:57:40.354Z,5.27
2018-03-19T16:03:45.004Z,5.00
2018-03-19T16:09:51.105Z,4.87
2018-03-19T16:15:55.635Z,4.53
2018-03-19T16:22:00.173Z,6.27
2018-03-19T16:28:05.755Z,4.77
2018-03-19T16:34:10.263Z,5.20
2018-03-19T16:40:15.684Z,8.20
2018-03-19T16:46:21.047Z,5.50
2018-03-19T16:52:26.397Z,5.70
2018-03-19T16:58:31.256Z,5.10
2018-03-19T17:04:35.814Z,5.73
2018-03-19T17:10:40.340Z,5.50
2018-03-19T17:16:45.709Z,5.33
2018-03-19T17:22:51.300Z,5.13
2018-03-19T17:28:55.999Z,4.23
2018-03-19T17:35:01.255Z,4.97
2018-03-19T17:41:05.741Z,5.37
2018-03-19T17:47:10.279Z,4.73
2018-03-19T17:53:14.788Z,4.87
2018-03-19T17:59:21.389Z,4.17
2018-03-19T18:05:26.042Z,4.70
2018-03-19T18:11:30.595Z,4.93
2018-03-19T18:17:35.545Z,5.93
2018-03-19T18:23:40.068Z,6.67
2018-03-19T18:29:44.749Z,6.23
2018-03-19T18:35:50.244Z,5.43
2018-03-19T18:41:55.659Z,16.57
2018-03-19T18:48:00.380Z,6.27
2018-03-19T18:54:04.978Z,6.57
2018-03-19T19:00:09.485Z,6.20
2018-03-19T19:06:15.072Z,5.00
2018-03-19T19:25:19.675Z,6.10
2018-03-19T19:31:24.286Z,5.43
2018-03-19T19:37:30.465Z,6.17
2018-03-19T19:43:35.044Z,8.67
2018-03-19T19:49:40.405Z,7.47
2018-03-19T19:55:45.111Z,6.90
2018-03-19T20:01:50.280Z,6.20
2018-03-19T20:07:54.881Z,6.40
2018-03-19T20:13:59.537Z,6.03
2018-03-19T20:20:04.793Z,5.17
2018-03-19T20:26:09.290Z,6.00
2018-03-19T20:32:13.988Z,5.90
2018-03-19T20:38:20.117Z,7.10
2018-03-19T20:44:24.970Z,6.73
2018-03-19T20:50:29.594Z,6.27
2018-03-19T20:56:34.883Z,5.37
2018-03-19T21:02:40.218Z,5.80
2018-03-19T21:08:44.745Z,5.60
2018-03-19T21:14:49.800Z,6.63
2018-03-19T21:20:54.538Z,5.10
2018-03-19T21:26:59.855Z,5.67
2018-03-19T21:33:04.360Z,5.80
2018-03-19T21:39:09.102Z,5.07
2018-03-19T21:45:14.413Z,5.50
2018-03-19T21:51:19.499Z,5.30
2018-03-19T21:57:25.090Z,6.07
2018-03-19T22:03:29.583Z,6.50
2018-03-19T22:09:34.100Z,5.17
2018-03-19T22:15:38.903Z,5.87
2018-03-19T22:21:43.395Z,5.73
2018-03-19T22:27:49.340Z,6.37
2018-03-19T22:33:54.742Z,5.60
2018-03-19T22:40:00.248Z,6.07
2018-03-19T22:46:04.961Z,5.93
2018-03-19T22:52:09.559Z,6.40
2018-03-19T22:58:14.205Z,6.87
2018-03-19T23:04:36.875Z,6.57
2018-03-19T23:10:41.359Z,7.93
2018-03-19T23:16:46.399Z,6.53
2018-03-19T23:22:52.119Z,6.70
2018-03-19T23:28:57.439Z,6.00
2018-03-19T23:35:01.961Z,6.27
2018-03-19T23:41:06.606Z,5.33
2018-03-19T23:47:11.156Z,6.67
2018-03-19T23:53:17.069Z,6.50
2018-03-19T23:59:21.703Z,6.80
